createdAt,value
2019-02-12T00:01:12.123Z,7.50
2019-02-12T00:03:42.409Z,7.40
2019-02-12T00:06:12.085Z,7.40
2019-02-12T00:08:41.755Z,7.40
2019-02-12T00:11:13.833Z,7.40
2019-02-12T00:13:43.469Z,7.40
2019-02-12T00:16:13.205Z,7.40
2019-02-12T00:18:42.928Z,7.40
2019-02-12T00:21:12.593Z,7.40
2019-02-12T00:23:42.292Z,7.40
2019-02-12T00:26:12.003Z,7.40
2019-02-12T00:28:41.794Z,7.40
2019-02-12T00:31:11.529Z,7.40
2019-02-12T00:33:41.224Z,7.40
2019-02-12T00:36:11.596Z,7.50
2019-02-12T00:38:41.261Z,7.60
2019-02-12T00:41:11.162Z,7.60
2019-02-12T00:43:40.903Z,7.70
2019-02-12T00:46:10.577Z,7.70
2019-02-12T00:48:40.347Z,7.80
2019-02-12T00:51:17.600Z,7.90
2019-02-12T00:53:43.617Z,7.90
2019-02-12T00:56:13.400Z,8.00
2019-02-12T00:58:43.065Z,8.10
2019-02-12T01:01:12.734Z,8.10
2019-02-12T01:03:42.432Z,8.20
2019-02-12T01:06:12.101Z,8.20
2019-02-12T01:08:41.777Z,8.30
2019-02-12T01:11:14.289Z,8.30
2019-02-12T01:13:44.464Z,8.30
2019-02-12T01:16:14.204Z,8.30
2019-02-12T01:18:43.896Z,8.30
2019-02-12T01:21:13.968Z,8.30
2019-02-12T01:23:43.634Z,8.30
2019-02-12T01:26:13.461Z,8.20
2019-02-12T01:28:43.261Z,8.20
2019-02-12T01:31:12.989Z,8.20
2019-02-12T01:33:44.806Z,8.10
2019-02-12T01:36:14.844Z,8.00
2019-02-12T01:38:44.595Z,8.00
2019-02-12T01:41:14.364Z,8.00
2019-02-12T01:43:44.127Z,8.00
2019-02-12T01:46:15.424Z,8.00
2019-02-12T01:48:45.176Z,7.90
2019-02-12T01:51:15.574Z,7.90
2019-02-12T01:53:46.896Z,7.80
2019-02-12T01:56:18.043Z,7.80
2019-02-12T01:58:47.764Z,7.80
2019-02-12T02:01:19.050Z,7.70
2019-02-12T02:03:48.734Z,7.70
2019-02-12T02:06:18.394Z,7.70
2019-02-12T02:08:48.243Z,7.60
2019-02-12T02:11:19.694Z,7.60
2019-02-12T02:13:49.947Z,7.60
2019-02-12T02:16:19.616Z,7.50
2019-02-12T02:18:51.914Z,7.50
2019-02-12T02:21:21.585Z,7.50
2019-02-12T02:23:52.463Z,7.50
2019-02-12T02:26:22.171Z,7.40
2019-02-12T02:28:51.864Z,7.40
2019-02-12T02:31:21.513Z,7.40
2019-02-12T02:33:51.735Z,7.40
2019-02-12T02:36:21.394Z,7.40
2019-02-12T02:38:51.069Z,7.40
2019-02-12T02:41:22.345Z,7.30
2019-02-12T02:43:52.009Z,7.30
2019-02-12T02:46:23.083Z,7.30
2019-02-12T02:48:52.760Z,7.30
2019-02-12T02:51:22.596Z,7.30
2019-02-12T02:53:52.245Z,7.30
2019-02-12T02:56:21.923Z,7.30
2019-02-12T02:58:51.590Z,7.20
2019-02-12T03:01:21.283Z,7.20
2019-02-12T03:03:51.046Z,7.20
2019-02-12T03:06:20.786Z,7.20
2019-02-12T03:08:51.942Z,7.20
2019-02-12T03:11:21.622Z,7.20
2019-02-12T03:13:51.280Z,7.20
2019-02-12T03:16:20.942Z,7.20
2019-02-12T03:18:50.652Z,7.10
2019-02-12T03:21:21.992Z,7.10
2019-02-12T03:23:53.116Z,7.10
2019-02-12T03:26:22.801Z,7.10
2019-02-12T03:28:52.481Z,7.10
2019-02-12T03:31:22.220Z,7.00
2019-02-12T03:33:51.927Z,7.00
2019-02-12T03:36:21.590Z,7.00
2019-02-12T03:38:51.241Z,7.00
2019-02-12T03:41:20.940Z,7.00
2019-02-12T03:43:50.602Z,7.00
2019-02-12T03:46:20.308Z,7.00
2019-02-12T03:48:50.393Z,7.00
2019-02-12T03:51:20.228Z,7.00
2019-02-12T03:53:49.889Z,7.00
2019-02-12T03:56:19.568Z,7.00
2019-02-12T03:58:49.220Z,7.00
2019-02-12T04:01:18.889Z,7.00
2019-02-12T04:03:48.589Z,7.00
2019-02-12T04:06:18.270Z,7.00
2019-02-12T04:08:48.723Z,7.00
2019-02-12T04:11:19.630Z,7.00
2019-02-12T04:13:49.357Z,7.00
2019-02-12T04:16:19.809Z,7.00
2019-02-12T04:18:49.520Z,7.10
2019-02-12T04:21:19.246Z,7.10
2019-02-12T04:23:48.913Z,7.20
2019-02-12T04:26:18.593Z,7.20
2019-02-12T04:28:48.328Z,7.20
2019-02-12T04:31:17.981Z,7.20
2019-02-12T04:33:49.318Z,7.30
2019-02-12T04:36:18.987Z,7.30
2019-02-12T04:38:50.191Z,7.30
2019-02-12T04:41:19.886Z,7.30
2019-02-12T04:43:49.560Z,7.30
2019-02-12T04:46:19.222Z,7.30
2019-02-12T04:48:48.920Z,7.30
2019-02-12T04:51:18.582Z,7.30
2019-02-12T04:53:48.275Z,7.30
2019-02-12T04:56:18.087Z,7.30
2019-02-12T04:58:47.803Z,7.30
2019-02-12T05:01:17.460Z,7.40
2019-02-12T05:03:47.169Z,7.40
2019-02-12T05:06:18.285Z,7.40
2019-02-12T05:09:14.767Z,7.40
2019-02-12T05:11:49.463Z,7.40
2019-02-12T05:14:20.582Z,7.40
2019-02-12T05:16:50.281Z,7.30
2019-02-12T05:19:20.019Z,7.30
2019-02-12T05:21:49.669Z,7.30
2019-02-12T05:24:19.364Z,7.30
2019-02-12T05:26:49.018Z,7.30
2019-02-12T05:29:18.700Z,7.30
2019-02-12T05:31:48.394Z,7.30
2019-02-12T05:34:18.046Z,7.30
2019-02-12T05:36:47.784Z,7.30
2019-02-12T05:39:17.484Z,7.30
2019-02-12T05:41:47.164Z,7.30
2019-02-12T05:44:16.848Z,7.20
2019-02-12T05:46:46.561Z,7.20
2019-02-12T05:49:16.222Z,7.20
2019-02-12T05:51:45.985Z,7.20
2019-02-12T05:54:17.137Z,7.20
2019-02-12T05:56:46.806Z,7.20
2019-02-12T05:59:16.490Z,7.20
2019-02-12T06:01:46.248Z,7.20
2019-02-12T06:04:17.407Z,7.20
2019-02-12T06:06:47.060Z,7.20
2019-02-12T06:09:16.755Z,7.20
2019-02-12T06:11:46.482Z,7.10
2019-02-12T06:14:16.149Z,7.10
2019-02-12T06:16:46.787Z,7.00
2019-02-12T06:19:16.461Z,7.00
2019-02-12T06:21:46.136Z,6.90
2019-02-12T06:24:17.377Z,6.90
2019-02-12T06:26:47.025Z,6.90
2019-02-12T06:29:16.701Z,6.80
2019-02-12T06:31:46.508Z,6.80
2019-02-12T06:34:16.155Z,6.80
2019-02-12T06:36:45.830Z,6.80
2019-02-12T06:39:15.625Z,6.80
2019-02-12T06:41:45.295Z,6.80
2019-02-12T06:44:16.501Z,6.80
2019-02-12T06:46:46.186Z,6.80
2019-02-12T06:49:15.944Z,6.80
2019-02-12T06:51:45.767Z,6.80
2019-02-12T06:54:15.461Z,6.80
2019-02-12T06:56:45.137Z,6.70
2019-02-12T06:59:14.875Z,6.70
2019-02-12T07:01:44.578Z,6.70
2019-02-12T07:04:33.513Z,6.70
2019-02-12T07:07:07.685Z,6.70
2019-02-12T07:09:41.992Z,6.70
2019-02-12T07:12:33.875Z,6.70
2019-02-12T07:15:16.623Z,6.70
2019-02-12T07:18:17.700Z,6.70
2019-02-12T07:21:19.372Z,6.70
2019-02-12T07:24:19.447Z,6.70
2019-02-12T07:27:14.066Z,6.80
2019-02-12T07:30:03.155Z,6.80
2019-02-12T07:33:00.542Z,6.80
2019-02-12T07:35:54.532Z,6.90
2019-02-12T07:38:43.186Z,7.00
2019-02-12T07:41:20.672Z,7.10
2019-02-12T07:44:12.776Z,7.20
2019-02-12T07:46:52.316Z,7.30
2019-02-12T07:49:38.189Z,7.40
2019-02-12T07:52:33.867Z,7.50
2019-02-12T07:55:48.355Z,7.50
2019-02-12T07:58:44.897Z,7.60
2019-02-12T08:01:45.615Z,7.60
2019-02-12T08:04:25.385Z,7.60
2019-02-12T08:07:36.314Z,7.70
2019-02-12T08:10:32.938Z,7.80
2019-02-12T08:13:37.322Z,7.80
2019-02-12T08:16:29.013Z,7.90
2019-02-12T08:19:12.691Z,7.90
2019-02-12T08:21:58.262Z,8.00
2019-02-12T08:24:41.026Z,8.00
2019-02-12T08:27:35.634Z,8.10
2019-02-12T08:30:36.963Z,8.20
2019-02-12T08:33:22.797Z,8.30
2019-02-12T08:36:02.882Z,8.40
2019-02-12T08:39:19.317Z,8.50
2019-02-12T08:42:17.386Z,8.60
2019-02-12T08:45:07.982Z,8.70
2019-02-12T08:48:03.546Z,8.80
2019-02-12T08:50:57.865Z,8.90
2019-02-12T08:53:40.694Z,9.00
2019-02-12T08:56:29.909Z,9.10
2019-02-12T08:59:30.761Z,9.20
2019-02-12T09:02:25.048Z,9.20
2019-02-12T09:05:31.919Z,9.30
2019-02-12T09:08:36.343Z,9.40
2019-02-12T09:11:47.652Z,9.40
2019-02-12T09:14:24.561Z,9.50
2019-02-12T09:17:08.712Z,9.50
2019-02-12T09:20:03.458Z,9.60
2019-02-12T09:22:40.305Z,9.70
2019-02-12T09:25:29.620Z,9.80
2019-02-12T09:28:22.696Z,10.00
2019-02-12T09:31:11.656Z,10.10
2019-02-12T09:34:05.091Z,10.30
2019-02-12T09:37:01.287Z,10.50
2019-02-12T09:39:45.249Z,10.60
2019-02-12T09:42:46.556Z,10.70
2019-02-12T09:45:26.231Z,10.90
2019-02-12T09:48:09.258Z,11.00
2019-02-12T09:50:58.197Z,11.10
2019-02-12T09:53:49.885Z,11.20
2019-02-12T09:56:35.704Z,11.20
2019-02-12T09:59:09.815Z,11.30
2019-02-12T10:02:03.368Z,11.40
2019-02-12T10:04:44.853Z,11.50
2019-02-12T10:07:39.877Z,11.60
2019-02-12T10:10:19.718Z,11.70
2019-02-12T10:12:56.597Z,11.80
2019-02-12T10:15:48.423Z,11.80
2019-02-12T10:18:28.599Z,11.90
2019-02-12T10:21:02.717Z,11.90
2019-02-12T10:23:51.825Z,12.00
2019-02-12T10:26:28.749Z,12.00
2019-02-12T10:29:23.620Z,12.00
2019-02-12T10:31:51.475Z,12.00
2019-02-12T10:34:21.154Z,12.00
2019-02-12T10:36:50.843Z,12.00
2019-02-12T10:39:20.920Z,12.10
2019-02-12T10:41:50.610Z,12.10
2019-02-12T10:44:20.292Z,12.30
2019-02-12T10:46:50.020Z,12.40
2019-02-12T10:49:19.759Z,12.50
2019-02-12T10:51:50.986Z,12.70
2019-02-12T10:54:27.725Z,12.80
2019-02-12T10:56:52.807Z,12.90
2019-02-12T10:59:22.464Z,13.00
2019-02-12T11:01:52.238Z,13.10
2019-02-12T11:04:21.908Z,13.20
2019-02-12T11:06:53.439Z,13.20
2019-02-12T11:09:23.376Z,13.40
2019-02-12T11:11:53.099Z,13.50
2019-02-12T11:14:24.236Z,13.60
2019-02-12T11:16:54.606Z,13.80
2019-02-12T11:19:24.292Z,14.00
2019-02-12T11:21:53.973Z,14.20
2019-02-12T11:24:23.678Z,14.30
2019-02-12T11:26:53.431Z,14.40
2019-02-12T11:29:23.112Z,14.50
2019-02-12T11:31:52.819Z,14.50
2019-02-12T11:34:24.941Z,14.60
2019-02-12T11:36:54.612Z,14.70
2019-02-12T11:39:24.425Z,14.80
2019-02-12T11:41:59.594Z,14.90
2019-02-12T11:44:29.294Z,15.00
2019-02-12T11:46:59.070Z,15.10
2019-02-12T11:49:28.745Z,15.20
2019-02-12T11:51:59.845Z,15.30
2019-02-12T11:54:29.682Z,15.40
2019-02-12T11:56:59.356Z,15.40
2019-02-12T11:59:29.731Z,15.40
2019-02-12T12:01:59.488Z,15.40
2019-02-12T12:04:29.153Z,15.40
2019-02-12T12:06:58.916Z,15.40
2019-02-12T12:09:28.962Z,15.40
2019-02-12T12:11:58.711Z,15.30
2019-02-12T12:14:30.075Z,15.30
2019-02-12T12:16:59.762Z,15.20
2019-02-12T12:19:29.506Z,15.10
2019-02-12T12:21:59.224Z,15.10
2019-02-12T12:24:29.021Z,15.10
2019-02-12T12:26:58.748Z,15.00
2019-02-12T12:29:28.510Z,15.00
2019-02-12T12:31:58.177Z,15.00
2019-02-12T12:34:27.847Z,15.00
2019-02-12T12:36:57.617Z,15.00
2019-02-12T12:39:28.382Z,15.00
2019-02-12T12:41:58.094Z,15.00
2019-02-12T12:44:27.797Z,14.90
2019-02-12T12:46:57.640Z,14.90
2019-02-12T12:49:27.468Z,14.90
2019-02-12T12:51:57.355Z,14.90
2019-02-12T12:54:27.122Z,14.90
2019-02-12T12:56:56.796Z,14.90
2019-02-12T12:59:26.517Z,14.80
2019-02-12T13:01:56.182Z,14.80
2019-02-12T13:04:25.842Z,15.00
2019-02-12T13:06:55.542Z,15.10
2019-02-12T13:09:25.240Z,15.40
2019-02-12T13:11:54.906Z,15.60
2019-02-12T13:14:24.829Z,15.70
2019-02-12T13:16:54.591Z,15.70
2019-02-12T13:19:24.279Z,15.80
2019-02-12T13:21:55.432Z,15.80
2019-02-12T13:24:25.112Z,15.80
2019-02-12T13:26:54.779Z,15.80
2019-02-12T13:29:26.083Z,15.80
2019-02-12T13:31:56.632Z,15.80
2019-02-12T13:34:26.333Z,15.80
2019-02-12T13:36:56.041Z,15.70
2019-02-12T13:39:25.789Z,15.70
2019-02-12T13:41:55.524Z,15.70
2019-02-12T13:44:25.602Z,15.60
2019-02-12T13:46:55.271Z,15.60
2019-02-12T13:49:24.976Z,15.50
2019-02-12T13:51:54.978Z,15.40
2019-02-12T13:54:24.662Z,15.30
2019-02-12T13:56:55.592Z,15.20
2019-02-12T13:59:25.288Z,15.10
2019-02-12T14:01:55.094Z,15.10
2019-02-12T14:04:26.576Z,15.10
2019-02-12T14:06:56.284Z,15.10
2019-02-12T14:09:26.057Z,15.20
2019-02-12T14:11:55.754Z,15.30
2019-02-12T14:14:26.942Z,15.40
2019-02-12T14:16:56.604Z,15.50
2019-02-12T14:19:28.154Z,15.50
2019-02-12T14:21:57.851Z,15.60
2019-02-12T14:24:27.529Z,15.70
2019-02-12T14:26:57.362Z,15.80
2019-02-12T14:29:27.052Z,15.80
2019-02-12T14:31:56.736Z,15.70
2019-02-12T14:34:26.457Z,15.70
2019-02-12T14:36:56.160Z,15.70
2019-02-12T14:39:25.832Z,15.70
2019-02-12T14:41:55.491Z,15.80
2019-02-12T14:44:25.208Z,15.80
2019-02-12T14:46:54.875Z,15.80
2019-02-12T14:49:24.902Z,15.80
2019-02-12T14:51:54.691Z,15.70
2019-02-12T14:54:24.364Z,15.80
2019-02-12T14:56:54.096Z,15.70
2019-02-12T14:59:23.958Z,15.70
2019-02-12T15:01:53.728Z,15.80
2019-02-12T15:04:23.399Z,15.80
2019-02-12T15:06:53.172Z,15.70
2019-02-12T15:09:22.847Z,15.70
2019-02-12T15:11:52.514Z,15.70
2019-02-12T15:14:22.200Z,15.70
2019-02-12T15:16:51.886Z,15.70
2019-02-12T15:19:21.644Z,15.70
2019-02-12T15:21:51.338Z,15.80
2019-02-12T15:24:21.076Z,15.80
2019-02-12T15:26:50.754Z,15.90
2019-02-12T15:29:20.679Z,16.00
2019-02-12T15:31:50.355Z,16.00
2019-02-12T15:34:20.033Z,16.00
2019-02-12T15:36:49.730Z,16.10
2019-02-12T15:39:19.475Z,16.10
2019-02-12T15:41:49.153Z,16.20
2019-02-12T15:44:20.134Z,16.30
2019-02-12T15:46:49.797Z,16.60
2019-02-12T15:49:19.555Z,17.00
2019-02-12T15:51:49.271Z,17.60
2019-02-12T15:54:19.024Z,18.40
2019-02-12T15:56:48.697Z,19.40
2019-02-12T15:59:18.386Z,20.40
2019-02-12T16:01:49.126Z,21.20
2019-02-12T16:04:19.696Z,22.00
2019-02-12T16:06:49.619Z,22.70
2019-02-12T16:09:19.286Z,23.20
2019-02-12T16:11:48.973Z,23.60
2019-02-12T16:14:21.575Z,23.80
2019-02-12T16:16:52.533Z,23.90
2019-02-12T16:19:22.978Z,23.70
2019-02-12T16:21:52.697Z,23.50
2019-02-12T16:24:22.363Z,23.10
2019-02-12T16:26:53.082Z,22.50
2019-02-12T16:29:22.756Z,22.30
2019-02-12T16:31:53.368Z,22.20
2019-02-12T16:34:23.753Z,22.20
2019-02-12T16:36:55.101Z,21.90
2019-02-12T16:39:24.943Z,21.50
2019-02-12T16:41:54.663Z,20.90
2019-02-12T16:44:24.368Z,20.20
2019-02-12T16:46:54.146Z,19.60
2019-02-12T16:49:23.945Z,19.10
2019-02-12T16:51:53.624Z,18.60
2019-02-12T16:54:23.293Z,18.20
2019-02-12T16:56:53.000Z,17.80
2019-02-12T16:59:22.662Z,17.40
2019-02-12T17:01:52.345Z,17.10
2019-02-12T17:04:22.061Z,16.70
2019-02-12T17:06:52.110Z,16.50
2019-02-12T17:09:22.750Z,16.20
2019-02-12T17:11:53.358Z,16.00
2019-02-12T17:14:23.124Z,15.80
2019-02-12T17:16:53.139Z,15.50
2019-02-12T17:19:22.854Z,15.30
2019-02-12T17:21:55.655Z,15.20
2019-02-12T17:24:34.058Z,15.10
2019-02-12T17:27:04.832Z,15.00
2019-02-12T17:29:34.513Z,14.90
2019-02-12T17:32:04.276Z,14.80
2019-02-12T17:34:34.006Z,14.80
2019-02-12T17:37:03.697Z,14.70
2019-02-12T17:39:33.395Z,14.60
2019-02-12T17:42:03.196Z,14.50
2019-02-12T17:44:32.849Z,14.50
2019-02-12T17:47:02.540Z,14.40
2019-02-12T17:49:32.232Z,14.40
2019-02-12T17:52:02.096Z,14.40
2019-02-12T17:54:31.784Z,14.30
2019-02-12T17:57:01.461Z,14.40
2019-02-12T17:59:31.621Z,14.30
2019-02-12T18:02:01.805Z,14.40
2019-02-12T18:04:32.021Z,14.40
2019-02-12T18:07:01.689Z,14.40
2019-02-12T18:09:34.143Z,14.40
2019-02-12T18:12:03.811Z,14.40
2019-02-12T18:14:33.503Z,14.40
2019-02-12T18:17:03.273Z,14.50
2019-02-12T18:19:32.957Z,14.50
2019-02-12T18:22:02.632Z,14.50
2019-02-12T18:24:32.341Z,14.50
2019-02-12T18:27:02.046Z,14.50
2019-02-12T18:29:31.898Z,14.50
2019-02-12T18:32:01.674Z,14.50
2019-02-12T18:34:31.370Z,14.50
2019-02-12T18:37:01.278Z,14.50
2019-02-12T18:39:30.980Z,14.50
2019-02-12T18:42:00.732Z,14.50
2019-02-12T18:44:30.474Z,14.50
2019-02-12T18:47:00.186Z,14.40
2019-02-12T18:49:29.874Z,14.40
2019-02-12T18:51:59.617Z,14.40
2019-02-12T18:54:29.303Z,14.40
2019-02-12T18:56:59.147Z,14.40
2019-02-12T18:59:28.873Z,14.40
2019-02-12T19:01:58.659Z,14.40
2019-02-12T19:04:28.340Z,14.40
2019-02-12T19:06:58.021Z,14.40
2019-02-12T19:09:27.735Z,14.40
2019-02-12T19:11:57.401Z,14.40
2019-02-12T19:14:27.105Z,14.40
2019-02-12T19:16:57.015Z,14.40
2019-02-12T19:19:26.686Z,14.40
2019-02-12T19:21:56.357Z,14.40
2019-02-12T19:24:26.054Z,14.40
2019-02-12T19:26:55.752Z,14.40
2019-02-12T19:29:37.963Z,14.40
2019-02-12T19:32:07.648Z,14.40
2019-02-12T19:34:37.465Z,14.30
2019-02-12T19:37:07.229Z,14.30
2019-02-12T19:39:36.893Z,14.20
2019-02-12T19:42:06.566Z,14.20
2019-02-12T19:44:36.272Z,14.10
2019-02-12T19:47:05.942Z,14.10
2019-02-12T19:49:35.624Z,14.00
2019-02-12T19:52:05.528Z,14.00
2019-02-12T19:54:35.192Z,13.90
2019-02-12T19:57:04.958Z,13.90
2019-02-12T19:59:34.661Z,13.80
2019-02-12T20:02:04.610Z,13.80
2019-02-12T20:04:35.895Z,13.70
2019-02-12T20:07:05.651Z,13.70
2019-02-12T20:09:38.293Z,13.70
2019-02-12T20:12:09.613Z,13.70
2019-02-12T20:14:39.459Z,13.70
2019-02-12T20:17:09.130Z,13.70
2019-02-12T20:19:40.635Z,13.70
2019-02-12T20:22:10.427Z,13.70
2019-02-12T20:24:40.101Z,13.70
2019-02-12T20:27:09.859Z,13.80
2019-02-12T20:29:39.575Z,13.80
2019-02-12T20:32:09.321Z,13.90
2019-02-12T20:34:39.013Z,13.90
2019-02-12T20:37:08.821Z,14.00
2019-02-12T20:39:38.487Z,14.00
2019-02-12T20:42:08.301Z,14.00
2019-02-12T20:44:38.156Z,14.00
2019-02-12T20:47:07.904Z,14.00
2019-02-12T20:49:37.750Z,14.00
2019-02-12T20:52:07.462Z,14.00
2019-02-12T20:54:37.116Z,14.00
2019-02-12T20:57:14.569Z,14.10
2019-02-12T20:59:38.336Z,14.10
2019-02-12T21:02:08.017Z,14.10
2019-02-12T21:04:37.693Z,14.20
2019-02-12T21:07:07.401Z,14.10
2019-02-12T21:09:38.294Z,14.20
2019-02-12T21:12:08.046Z,14.20
2019-02-12T21:14:37.754Z,14.20
2019-02-12T21:17:07.499Z,14.20
2019-02-12T21:19:37.176Z,14.20
2019-02-12T21:22:06.901Z,14.00
2019-02-12T21:24:41.830Z,14.20
2019-02-12T21:27:12.907Z,14.20
2019-02-12T21:29:44.105Z,14.20
2019-02-12T21:32:13.775Z,14.20
2019-02-12T21:34:43.461Z,14.30
2019-02-12T21:37:13.216Z,14.30
2019-02-12T21:39:42.951Z,14.30
2019-02-12T21:42:12.657Z,14.40
2019-02-12T21:44:42.331Z,14.40
2019-02-12T21:47:11.998Z,14.40
2019-02-12T21:49:41.789Z,14.50
2019-02-12T21:52:11.535Z,14.50
2019-02-12T21:54:41.215Z,14.50
2019-02-12T21:57:11.066Z,14.50
2019-02-12T21:59:41.281Z,14.50
2019-02-12T22:02:11.983Z,14.50
2019-02-12T22:04:41.748Z,14.50
2019-02-12T22:07:11.414Z,14.50
2019-02-12T22:09:41.085Z,14.50
2019-02-12T22:12:10.792Z,14.50
2019-02-12T22:14:40.487Z,14.50
2019-02-12T22:17:10.155Z,14.50
2019-02-12T22:19:39.875Z,14.50
2019-02-12T22:22:10.308Z,14.50
2019-02-12T22:24:40.015Z,14.50
2019-02-12T22:27:09.729Z,14.50
2019-02-12T22:29:39.394Z,14.40
2019-02-12T22:32:09.129Z,14.40
2019-02-12T22:34:38.833Z,14.40
2019-02-12T22:37:27.860Z,14.40
2019-02-12T22:39:57.605Z,14.40
2019-02-12T22:42:27.272Z,14.40
2019-02-12T22:44:57.259Z,14.40
2019-02-12T22:47:27.025Z,14.40
2019-02-12T22:49:56.764Z,14.40
2019-02-12T22:52:27.034Z,14.40
2019-02-12T22:54:57.777Z,14.40
2019-02-12T22:57:29.078Z,14.40
2019-02-12T22:59:59.443Z,14.40
2019-02-12T23:02:29.227Z,14.40
2019-02-12T23:04:58.911Z,14.40
2019-02-12T23:07:47.959Z,14.40
2019-02-12T23:10:17.650Z,14.50
2019-02-12T23:12:47.391Z,14.50
2019-02-12T23:15:18.407Z,14.50
2019-02-12T23:17:48.105Z,14.50
2019-02-12T23:20:19.398Z,14.50
2019-02-12T23:22:49.087Z,14.50
2019-02-12T23:25:18.864Z,14.50
2019-02-12T23:27:57.036Z,14.50
2019-02-12T23:30:21.780Z,14.50
2019-02-12T23:32:51.474Z,14.50
2019-02-12T23:35:21.141Z,14.40
2019-02-12T23:37:50.842Z,14.40
2019-02-12T23:40:20.530Z,14.40
2019-02-12T23:42:50.281Z,14.30
2019-02-12T23:45:20.001Z,14.30
2019-02-12T23:47:49.644Z,14.20
2019-02-12T23:50:19.304Z,14.20
2019-02-12T23:52:49.023Z,14.10
2019-02-12T23:55:20.206Z,14.10
2019-02-12T23:57:51.356Z,14.00
